Time;durP1;ratioP1;P1;durP2;ratioP2;P2;SDS_P1;SDS_P2;PMS_P1;PMS_P2;Temp;Humidity;BMP_temperature;BMP_pressure;BME280_temperature;BME280_humidity;BME280_pressure;Samples;Min_cycle;Max_cycle;Signal;HPM_P1;HPM_P2
2022/09/15 00:33:04;;;;;;;5.72;1.15;;;16.70;99.90;;;;;;6167307;23;20032;-90
2022/09/15 00:35:52;;;;;;;1.38;1.25;;;16.80;99.90;;;;;;6164018;23;20024;-89
2022/09/15 00:38:22;;;;;;;1.88;1.77;;;16.70;99.90;;;;;;6225008;23;20012;-88
2022/09/15 00:41:00;;;;;;;0.90;0.80;;;16.70;99.90;;;;;;6188984;23;20016;-87
2022/09/15 00:43:43;;;;;;;3.38;2.42;;;16.60;99.90;;;;;;6189619;23;20032;-91
2022/09/15 00:47:09;;;;;;;3.72;1.00;;;16.60;99.90;;;;;;6237560;23;20040;-87
2022/09/15 00:50:28;;;;;;;3.97;1.08;;;16.50;99.90;;;;;;6170418;23;20031;-88
2022/09/15 00:59:53;;;;;;;1.38;1.08;;;16.60;99.90;;;;;;6198516;23;20095;-85
2022/09/15 01:03:00;;;;;;;1.20;1.10;;;16.50;99.90;;;;;;6087732;23;20358;-86
2022/09/15 01:06:34;;;;;;;1.80;0.90;;;16.60;99.90;;;;;;6152348;23;20025;-87
2022/09/15 01:09:51;;;;;;;0.98;0.88;;;16.50;99.90;;;;;;6031082;23;20026;-87
2022/09/15 01:12:57;;;;;;;7.30;1.40;;;16.50;99.90;;;;;;6105798;23;20065;-89
2022/09/15 01:15:45;;;;;;;0.98;0.73;;;16.50;99.90;;;;;;6155079;23;20622;-87
2022/09/15 01:18:47;;;;;;;2.80;1.25;;;16.60;99.90;;;;;;6157725;23;20029;-87
2022/09/15 01:21:45;;;;;;;1.60;0.73;;;16.60;99.90;;;;;;6128559;23;20026;-90
2022/09/15 01:25:27;;;;;;;3.08;2.67;;;16.70;99.90;;;;;;6153095;23;20315;-89
2022/09/15 01:28:55;;;;;;;1.83;1.52;;;16.80;99.90;;;;;;6129431;23;20017;-92
2022/09/15 01:33:02;;;;;;;1.60;1.08;;;16.80;99.90;;;;;;6154643;23;20035;-88
2022/09/15 01:35:16;;;;;;;1.98;1.38;;;16.90;99.90;;;;;;6232681;23;20025;-91
2022/09/15 01:41:51;;;;;;;1.40;1.05;;;17.00;99.90;;;;;;6161157;22;20026;-91
2022/09/15 01:44:37;;;;;;;2.25;1.15;;;17.00;99.90;;;;;;6106454;23;20022;-88
2022/09/15 01:48:10;;;;;;;3.28;3.05;;;16.90;99.90;;;;;;6139955;23;20013;-88
2022/09/15 01:51:27;;;;;;;1.23;1.10;;;16.90;99.90;;;;;;6105283;23;20041;-86
2022/09/15 01:59:20;;;;;;;1.30;1.20;;;16.80;99.90;;;;;;6138647;23;20021;-84
2022/09/15 02:02:11;;;;;;;1.58;1.23;;;16.90;99.90;;;;;;6128525;23;20026;-89
2022/09/15 02:05:46;;;;;;;1.15;1.05;;;16.80;99.90;;;;;;6085330;23;20033;-88
2022/09/15 02:09:25;;;;;;;2.25;1.15;;;16.90;99.90;;;;;;6128080;23;20026;-88
2022/09/15 02:16:34;;;;;;;1.45;1.23;;;16.90;99.90;;;;;;6024507;23;20026;-90
2022/09/15 02:19:11;;;;;;;1.40;0.90;;;17.00;99.90;;;;;;6072908;23;20019;-89
2022/09/15 02:22:28;;;;;;;1.50;1.15;;;17.10;99.90;;;;;;6094389;23;20038;-89
2022/09/15 02:25:23;;;;;;;1.40;0.85;;;17.10;99.90;;;;;;6069880;23;20023;-90
2022/09/15 02:28:06;;;;;;;1.92;1.17;;;16.90;99.90;;;;;;6036604;23;20486;-90
2022/09/15 02:35:06;;;;;;;2.38;0.98;;;17.00;99.90;;;;;;6050139;23;20348;-89
2022/09/15 02:38:20;;;;;;;1.17;0.85;;;16.90;99.90;;;;;;6116585;23;20446;-87
2022/09/15 02:41:06;;;;;;;1.50;1.40;;;16.90;99.90;;;;;;6135425;23;20461;-87
2022/09/15 02:43:33;;;;;;;1.88;1.77;;;17.00;99.90;;;;;;6082325;23;20024;-88
2022/09/15 02:46:01;;;;;;;2.72;1.95;;;17.00;99.90;;;;;;6109090;23;20464;-89
2022/09/15 02:49:06;;;;;;;1.83;1.00;;;16.90;99.90;;;;;;6137345;23;20033;-89
2022/09/15 02:51:37;;;;;;;1.20;1.10;;;17.00;99.90;;;;;;6116801;23;20338;-86
2022/09/15 02:59:19;;;;;;;4.78;3.13;;;16.90;99.90;;;;;;6123945;23;20018;-91
2022/09/15 03:02:11;;;;;;;1.52;1.42;;;16.90;99.90;;;;;;6086991;23;20029;-86
2022/09/15 03:04:49;;;;;;;2.47;1.10;;;16.90;99.90;;;;;;6121830;23;20075;-87
2022/09/15 03:07:23;;;;;;;5.25;1.10;;;16.80;99.90;;;;;;6105693;23;20014;-86
2022/09/15 03:09:58;;;;;;;1.00;0.98;;;16.80;99.90;;;;;;6106656;23;20025;-87
2022/09/15 03:12:59;;;;;;;0.90;0.90;;;16.70;99.90;;;;;;6074622;23;20025;-90
2022/09/15 03:15:27;;;;;;;4.35;1.48;;;16.70;99.90;;;;;;6125344;23;20014;-88
2022/09/15 03:17:58;;;;;;;7.10;0.95;;;16.80;99.90;;;;;;6105261;23;20021;-88
2022/09/15 03:20:29;;;;;;;3.10;0.80;;;16.60;99.90;;;;;;6105495;23;20331;-84
2022/09/15 03:23:48;;;;;;;1.45;1.25;;;16.60;99.90;;;;;;6106234;23;20018;-84
2022/09/15 03:26:29;;;;;;;1.70;1.00;;;16.60;99.90;;;;;;6136418;23;20763;-84
2022/09/15 03:28:57;;;;;;;1.30;1.20;;;16.70;99.90;;;;;;6104801;23;20018;-83
2022/09/15 03:31:26;;;;;;;1.50;1.40;;;16.60;99.90;;;;;;6064992;23;20018;-85
2022/09/15 03:33:55;;;;;;;1.33;0.98;;;16.60;99.90;;;;;;6030390;23;20024;-83
2022/09/15 03:36:25;;;;;;;1.42;0.98;;;16.50;99.90;;;;;;6012255;23;20023;-83
2022/09/15 03:39:05;;;;;;;2.53;1.92;;;16.50;99.90;;;;;;5989945;23;20075;-86
2022/09/15 03:41:33;;;;;;;1.00;0.90;;;16.50;99.90;;;;;;6040967;23;20037;-88
2022/09/15 03:44:00;;;;;;;1.25;0.93;;;16.40;99.90;;;;;;5967473;23;20387;-88
2022/09/15 03:46:29;;;;;;;1.40;1.08;;;16.50;99.90;;;;;;6013584;23;20027;-89
2022/09/15 03:49:09;;;;;;;1.88;0.90;;;16.50;99.90;;;;;;5989287;23;20043;-87
2022/09/15 03:51:37;;;;;;;1.00;0.90;;;16.50;99.90;;;;;;6013269;23;20019;-85
2022/09/15 03:54:43;;;;;;;;;;;16.70;99.90;;;;;;5994935;23;20347;-88
2022/09/15 03:57:10;;;;;;;1.23;0.85;;;16.70;99.90;;;;;;6037085;23;20281;-86
2022/09/15 03:59:44;;;;;;;1.58;1.48;;;16.60;99.90;;;;;;6107724;23;20014;-89
2022/09/15 04:02:33;;;;;;;3.22;1.60;;;16.60;99.90;;;;;;6099444;23;20025;-88
2022/09/15 04:05:08;;;;;;;2.00;1.08;;;16.70;99.90;;;;;;6080573;23;20017;-88
2022/09/15 04:08:23;;;;;;;2.10;1.30;;;16.80;99.90;;;;;;6130044;23;20025;-89
2022/09/15 04:11:26;;;;;;;4.05;1.70;;;16.60;99.90;;;;;;6110434;23;20032;-90
2022/09/15 04:14:15;;;;;;;2.42;1.58;;;16.60;99.90;;;;;;6091774;23;20022;-88
2022/09/15 04:17:17;;;;;;;4.18;0.90;;;16.60;99.90;;;;;;6125017;23;20021;-89
2022/09/15 04:20:20;;;;;;;1.73;1.00;;;16.70;99.90;;;;;;6130501;23;20040;-89
2022/09/15 04:23:06;;;;;;;1.60;1.25;;;16.70;99.90;;;;;;6069336;23;20033;-87
2022/09/15 04:26:06;;;;;;;1.17;1.08;;;16.80;99.90;;;;;;6108086;23;20021;-89
2022/09/15 04:28:54;;;;;;;2.50;1.58;;;16.80;99.90;;;;;;6127949;23;20018;-86
2022/09/15 04:31:22;;;;;;;1.58;0.80;;;16.70;99.90;;;;;;6129220;23;20018;-90
2022/09/15 04:33:52;;;;;;;1.80;0.90;;;16.80;99.90;;;;;;6128851;23;20021;-87
2022/09/15 04:36:26;;;;;;;0.90;0.90;;;16.90;99.90;;;;;;6102972;23;20028;-87
2022/09/15 04:38:54;;;;;;;3.10;1.00;;;16.80;99.90;;;;;;6129580;23;20020;-91
2022/09/15 04:41:22;;;;;;;2.25;1.00;;;16.80;99.90;;;;;;6157624;23;20033;-90
2022/09/15 04:43:58;;;;;;;1.10;0.65;;;16.90;99.90;;;;;;6104714;23;20031;-91
2022/09/15 04:46:27;;;;;;;1.80;1.05;;;16.80;99.90;;;;;;6152641;23;20029;-91
2022/09/15 04:48:57;;;;;;;1.83;0.95;;;16.90;99.90;;;;;;6134795;23;20025;-89
2022/09/15 04:51:29;;;;;;;2.67;0.70;;;17.00;99.90;;;;;;6130456;23;20017;-90
2022/09/15 04:55:40;;;;;;;3.83;0.75;;;17.00;99.90;;;;;;6163723;23;20036;-90
2022/09/15 04:58:08;;;;;;;2.72;1.88;;;16.90;99.90;;;;;;6154061;23;20017;-93
2022/09/15 05:00:42;;;;;;;1.45;1.00;;;16.90;99.90;;;;;;6159862;23;20618;-92
2022/09/15 05:03:12;;;;;;;0.77;0.77;;;17.00;99.90;;;;;;6189305;23;20013;-89
2022/09/15 05:05:40;;;;;;;0.75;0.60;;;16.90;99.90;;;;;;6135565;23;20033;-88
2022/09/15 05:08:07;;;;;;;1.08;1.08;;;16.90;99.90;;;;;;6158228;23;20017;-91
2022/09/15 05:14:00;;;;;;;0.98;0.90;;;16.80;99.90;;;;;;6133648;23;20040;-90
2022/09/15 05:16:34;;;;;;;1.02;0.90;;;16.90;99.90;;;;;;6169863;23;20022;-91
2022/09/15 05:19:04;;;;;;;2.72;0.80;;;16.90;99.90;;;;;;6119949;23;20028;-90
2022/09/15 05:21:32;;;;;;;3.03;0.60;;;16.90;99.90;;;;;;6157345;23;20032;-86
2022/09/15 05:24:33;;;;;;;0.60;0.60;;;17.00;99.90;;;;;;6189768;23;20024;-91
2022/09/15 05:27:01;;;;;;;5.57;2.05;;;17.00;99.90;;;;;;6194413;23;20013;-87
2022/09/15 05:29:28;;;;;;;2.60;1.15;;;17.10;99.90;;;;;;6101150;23;20025;-87
2022/09/15 05:32:40;;;;;;;1.15;0.75;;;17.10;99.90;;;;;;6087825;23;20028;-90
2022/09/15 05:35:26;;;;;;;0.85;0.60;;;17.10;99.90;;;;;;6134904;23;20041;-91
2022/09/15 05:38:12;;;;;;;2.35;0.88;;;17.10;99.90;;;;;;6126635;23;20030;-90
2022/09/15 05:40:54;;;;;;;;;;;;;;;;;;;;;
2022/09/15 05:43:39;;;;;;;;;;;17.10;99.90;;;;;;6098761;23;20089;-90
2022/09/15 05:46:11;;;;;;;1.83;0.93;;;17.00;99.90;;;;;;6061112;23;19924;-85
2022/09/15 05:48:42;;;;;;;0.50;0.50;;;16.90;99.90;;;;;;6122152;23;20022;-90
2022/09/15 05:51:14;;;;;;;0.50;0.50;;;16.80;99.90;;;;;;6127967;23;20512;-93
2022/09/15 05:54:26;;;;;;;0.65;0.65;;;16.90;99.90;;;;;;6111198;23;20078;-88
2022/09/15 05:57:01;;;;;;;2.00;0.80;;;16.70;99.90;;;;;;6144516;23;20024;-91
2022/09/15 05:59:37;;;;;;;1.50;0.73;;;16.70;99.90;;;;;;6133877;23;20017;-91
2022/09/15 06:02:54;;;;;;;0.93;0.80;;;16.70;99.90;;;;;;6126887;23;20017;-93
2022/09/15 06:06:00;;;;;;;0.85;0.70;;;16.70;99.90;;;;;;6133510;23;20021;-92
2022/09/15 06:08:36;;;;;;;0.70;0.70;;;16.60;99.90;;;;;;6158381;23;20021;-89
2022/09/15 06:11:26;;;;;;;0.63;0.63;;;16.70;99.90;;;;;;6163800;23;20040;-91
2022/09/15 06:14:13;;;;;;;2.83;0.80;;;16.60;99.90;;;;;;6149822;23;20017;-94
2022/09/15 06:16:41;;;;;;;1.25;1.15;;;16.50;99.90;;;;;;6139721;23;20037;-90
2022/09/15 06:19:22;;;;;;;1.25;0.80;;;16.40;99.90;;;;;;6161712;23;20024;-91
2022/09/15 06:22:28;;;;;;;0.70;0.70;;;16.50;99.90;;;;;;6130042;23;20036;-89
2022/09/15 06:25:05;;;;;;;1.83;1.30;;;16.60;99.90;;;;;;6159421;23;20025;-92
2022/09/15 06:31:08;;;;;;;0.73;0.50;;;16.60;99.90;;;;;;6182804;23;20021;-90
2022/09/15 06:33:44;;;;;;;3.45;1.60;;;16.70;99.90;;;;;;6152759;23;20027;-93
2022/09/15 06:36:26;;;;;;;0.82;0.70;;;16.90;99.90;;;;;;6120281;23;20024;-91
2022/09/15 06:42:34;;;;;;;1.63;0.68;;;16.90;99.90;;;;;;5971184;24;20028;-89
2022/09/15 06:46:01;;;;;;;0.50;0.50;;;17.00;99.90;;;;;;5941096;23;20025;-86
2022/09/15 06:56:46;;;;;;;0.60;0.60;;;17.30;99.90;;;;;;6176016;22;20021;-88
2022/09/15 07:13:03;;;;;;;;;;;;;;;;;;;;;
2022/09/15 07:16:52;;;;;;;3.70;1.63;;;17.20;99.90;;;;;;6042049;23;20024;-86
2022/09/15 07:20:05;;;;;;;1.30;1.20;;;17.20;99.90;;;;;;6041586;23;20035;-84
2022/09/15 07:22:55;;;;;;;0.40;0.40;;;17.20;99.90;;;;;;6128911;23;20021;-85
2022/09/15 07:25:23;;;;;;;3.42;2.25;;;17.20;99.90;;;;;;6090979;23;20033;-82
2022/09/15 07:28:02;;;;;;;1.85;1.30;;;17.10;99.90;;;;;;6136079;23;20348;-87
2022/09/15 07:30:32;;;;;;;0.70;0.68;;;17.00;99.90;;;;;;6142814;23;20036;-86
2022/09/15 07:33:01;;;;;;;1.30;1.00;;;16.90;99.90;;;;;;6159126;23;20029;-85
2022/09/15 07:35:32;;;;;;;4.00;1.35;;;16.80;99.90;;;;;;6164328;23;20017;-84
2022/09/15 07:38:04;;;;;;;1.30;1.20;;;16.70;99.90;;;;;;6104765;23;20055;-84
2022/09/15 07:40:36;;;;;;;0.88;0.60;;;16.70;99.90;;;;;;6144078;23;20032;-85
2022/09/15 07:43:12;;;;;;;0.68;0.68;;;16.60;99.90;;;;;;6104787;23;20024;-85
2022/09/15 07:45:40;;;;;;;1.38;0.80;;;16.60;99.90;;;;;;6153147;23;20029;-86
2022/09/15 07:48:08;;;;;;;1.17;1.10;;;16.40;99.90;;;;;;6162218;23;20020;-84
2022/09/15 07:50:35;;;;;;;3.50;1.25;;;16.50;99.90;;;;;;6190649;23;20009;-85
2022/09/15 07:53:22;;;;;;;1.17;1.08;;;16.50;99.90;;;;;;6183178;23;20033;-86
2022/09/15 07:55:59;;;;;;;0.80;0.75;;;16.40;99.90;;;;;;6187686;23;20020;-86
2022/09/15 07:58:32;;;;;;;1.00;0.90;;;16.50;99.90;;;;;;6185796;23;20028;-84
2022/09/15 08:01:09;;;;;;;0.80;0.80;;;16.60;99.90;;;;;;6182246;23;20028;-85
2022/09/15 08:03:47;;;;;;;1.15;0.73;;;16.60;99.90;;;;;;6188214;23;20021;-85
2022/09/15 08:06:27;;;;;;;0.70;0.70;;;16.70;99.90;;;;;;6179347;23;20471;-84
2022/09/15 08:08:55;;;;;;;1.33;1.23;;;16.90;99.90;;;;;;6183302;23;20044;-85
2022/09/15 08:11:31;;;;;;;1.35;0.60;;;17.00;99.90;;;;;;6152976;23;20017;-86
2022/09/15 08:14:02;;;;;;;3.70;1.25;;;17.10;99.90;;;;;;6128396;23;20032;-84
2022/09/15 08:16:30;;;;;;;1.63;1.52;;;17.20;99.90;;;;;;6129222;23;20021;-85
2022/09/15 08:19:00;;;;;;;1.50;1.40;;;17.30;99.90;;;;;;6180759;23;20017;-84
2022/09/15 08:21:27;;;;;;;0.70;0.70;;;17.40;99.90;;;;;;6155705;23;20740;-86
2022/09/15 08:24:01;;;;;;;2.13;0.90;;;17.50;99.90;;;;;;6162378;23;20731;-83
2022/09/15 08:26:37;;;;;;;3.08;1.42;;;17.60;99.90;;;;;;6165800;23;20017;-85
2022/09/15 08:29:04;;;;;;;0.88;0.80;;;17.60;99.90;;;;;;6184169;23;20365;-85
2022/09/15 08:32:45;;;;;;;2.88;0.50;;;17.70;99.90;;;;;;6165690;23;20009;-92
2022/09/15 08:35:51;;;;;;;0.77;0.73;;;17.70;99.90;;;;;;6104644;23;20022;-93
2022/09/15 08:39:36;;;;;;;1.10;0.80;;;17.80;99.90;;;;;;6134917;23;20032;-87
2022/09/15 08:42:33;;;;;;;1.85;0.95;;;18.00;99.90;;;;;;6164741;23;20029;-90
2022/09/15 08:45:56;;;;;;;0.80;0.80;;;18.10;99.90;;;;;;6151681;23;20448;-91
2022/09/15 08:59:33;;;;;;;1.02;0.60;;;18.30;99.90;;;;;;6103876;23;20021;-92
2022/09/15 09:02:59;;;;;;;;;;;;;;;;;;;;;
2022/09/15 09:14:22;;;;;;;4.13;0.70;;;18.70;99.90;;;;;;6155204;23;20029;-89
2022/09/15 09:21:21;;;;;;;1.70;0.82;;;19.00;99.90;;;;;;6060271;23;20018;-89
2022/09/15 09:35:23;;;;;;;;;;;19.10;99.90;;;;;;6040101;23;20026;-93
2022/09/15 09:38:43;;;;;;;0.85;0.85;;;19.40;99.90;;;;;;6070885;23;19925;-92
2022/09/15 09:45:12;;;;;;;2.40;1.00;;;20.00;99.90;;;;;;6056148;23;20476;-91
2022/09/15 09:47:51;;;;;;;0.98;0.88;;;20.10;99.90;;;;;;6039379;23;20312;-90
2022/09/15 09:50:31;;;;;;;2.38;1.42;;;20.10;99.90;;;;;;6065011;23;20568;-90
2022/09/15 09:59:25;;;;;;;2.45;2.22;;;20.10;99.90;;;;;;6060980;23;20026;-93
2022/09/15 10:02:17;;;;;;;0.98;0.80;;;20.20;99.90;;;;;;6090334;23;20478;-87
2022/09/15 10:05:13;;;;;;;2.45;1.05;;;20.10;99.90;;;;;;6080737;23;20026;-88
2022/09/15 10:08:02;;;;;;;0.75;0.75;;;20.00;99.90;;;;;;6089721;23;20033;-91
2022/09/15 10:11:13;;;;;;;2.38;0.85;;;20.20;99.90;;;;;;6040294;23;20026;-92
2022/09/15 10:13:55;;;;;;;0.63;0.63;;;20.10;99.90;;;;;;6120305;23;20022;-87
2022/09/15 10:16:36;;;;;;;0.82;0.82;;;20.10;99.90;;;;;;6093029;23;20025;-87
2022/09/15 10:19:04;;;;;;;1.58;1.00;;;20.20;99.90;;;;;;6119356;23;20041;-87
2022/09/15 10:21:31;;;;;;;0.98;0.70;;;20.30;99.90;;;;;;6121396;23;20029;-86
2022/09/15 10:28:28;;;;;;;3.22;1.02;;;20.50;99.90;;;;;;6124763;23;20569;-88
2022/09/15 10:31:40;;;;;;;0.85;0.70;;;20.80;99.90;;;;;;6123994;23;20700;-89
2022/09/15 10:34:27;;;;;;;2.35;1.20;;;20.70;99.90;;;;;;6076599;23;20073;-88
2022/09/15 10:37:25;;;;;;;2.70;0.80;;;20.60;99.90;;;;;;6215543;23;20025;-89
2022/09/15 10:40:03;;;;;;;3.55;0.65;;;20.60;99.90;;;;;;6175254;23;20017;-85
2022/09/15 10:43:03;;;;;;;1.33;0.60;;;20.30;99.90;;;;;;6169170;23;20017;-85
2022/09/15 10:45:45;;;;;;;0.82;0.82;;;20.50;99.90;;;;;;6178917;23;20025;-85
2022/09/15 10:48:30;;;;;;;3.47;0.85;;;20.60;99.90;;;;;;6156121;23;20092;-87
2022/09/15 10:51:57;;;;;;;0.73;0.73;;;20.50;99.90;;;;;;6193040;23;20017;-91
2022/09/15 10:54:56;;;;;;;0.55;0.55;;;20.80;99.90;;;;;;6191012;23;20033;-92
2022/09/15 11:02:10;;;;;;;4.00;1.10;;;21.10;99.90;;;;;;6035449;23;20023;-87
2022/09/15 11:05:12;;;;;;;0.63;0.50;;;20.70;99.90;;;;;;5999422;23;20480;-85
2022/09/15 11:08:01;;;;;;;2.15;2.05;;;20.50;99.90;;;;;;5986656;23;20027;-85
2022/09/15 11:11:07;;;;;;;1.45;0.90;;;20.40;99.90;;;;;;6095850;23;20022;-93
2022/09/15 11:14:50;;;;;;;;;;;;;;;;;;;;;
2022/09/15 11:18:35;;;;;;;0.60;0.60;;;20.40;99.90;;;;;;6042904;23;20097;-91
2022/09/15 11:21:38;;;;;;;0.57;0.57;;;20.40;99.90;;;;;;6045739;23;20026;-86
2022/09/15 11:24:47;;;;;;;0.90;0.77;;;20.30;99.90;;;;;;6101614;23;20405;-92
2022/09/15 11:27:41;;;;;;;2.33;1.13;;;20.30;99.90;;;;;;6091351;23;20030;-92
2022/09/15 11:30:36;;;;;;;3.60;0.75;;;20.40;99.90;;;;;;6107962;23;20025;-87
2022/09/15 11:33:30;;;;;;;2.10;0.80;;;20.30;99.90;;;;;;6165389;23;20337;-85
2022/09/15 11:36:08;;;;;;;0.88;0.88;;;20.30;99.90;;;;;;6190476;23;20028;-87
2022/09/15 11:38:52;;;;;;;5.63;1.75;;;20.50;99.90;;;;;;6190980;23;20012;-92
2022/09/15 11:41:32;;;;;;;2.47;1.05;;;20.60;99.90;;;;;;6149509;23;20030;-87
2022/09/15 11:44:22;;;;;;;1.73;1.23;;;21.00;99.90;;;;;;6169891;23;20013;-89
2022/09/15 11:46:58;;;;;;;4.88;1.17;;;21.30;99.90;;;;;;6173406;23;20377;-87
2022/09/15 11:49:44;;;;;;;7.60;1.88;;;21.30;99.90;;;;;;6184133;23;20029;-85
2022/09/15 11:53:15;;;;;;;2.95;0.98;;;21.00;99.90;;;;;;6184060;23;20021;-92
2022/09/15 11:56:02;;;;;;;0.98;0.90;;;20.80;99.90;;;;;;6115563;23;20025;-88
2022/09/15 11:58:42;;;;;;;1.33;1.15;;;20.80;99.90;;;;;;6165461;23;20033;-89
2022/09/15 12:01:44;;;;;;;0.95;0.77;;;20.50;99.90;;;;;;6185478;23;20029;-88
2022/09/15 12:04:53;;;;;;;0.80;0.57;;;20.40;99.90;;;;;;6188180;23;20036;-90
2022/09/15 12:07:27;;;;;;;1.52;0.82;;;20.40;99.90;;;;;;6128028;23;20032;-90
2022/09/15 12:11:02;;;;;;;16.48;2.55;;;20.60;99.90;;;;;;6182323;23;20040;-89
2022/09/15 12:13:56;;;;;;;2.35;0.90;;;20.70;99.90;;;;;;6138438;23;20433;-85
2022/09/15 12:16:26;;;;;;;0.82;0.80;;;20.80;99.90;;;;;;6143427;23;20024;-86
2022/09/15 12:19:20;;;;;;;0.73;0.50;;;20.70;99.90;;;;;;6184262;23;20020;-85
2022/09/15 12:26:14;;;;;;;1.88;1.33;;;20.30;99.90;;;;;;6165975;23;20538;-84
2022/09/15 12:29:02;;;;;;;0.73;0.70;;;20.20;99.90;;;;;;6177222;23;20357;-85
2022/09/15 12:31:47;;;;;;;1.45;0.95;;;20.10;99.90;;;;;;6180375;23;20012;-90
2022/09/15 12:34:26;;;;;;;1.00;1.00;;;19.90;99.90;;;;;;6179824;23;20021;-86
2022/09/15 12:37:47;;;;;;;1.15;1.05;;;19.80;99.90;;;;;;6155070;23;20025;-92
2022/09/15 12:40:29;;;;;;;2.75;0.73;;;19.70;99.90;;;;;;6163322;23;20029;-88
2022/09/15 12:43:17;;;;;;;;;;;19.60;99.90;;;;;;6192089;23;20655;-88
2022/09/15 12:46:26;;;;;;;0.57;0.43;;;19.50;99.90;;;;;;6182786;23;19923;-86
2022/09/15 12:49:18;;;;;;;0.98;0.82;;;19.50;99.90;;;;;;6155392;23;20040;-89
2022/09/15 12:52:19;;;;;;;0.47;0.47;;;19.60;99.90;;;;;;6179572;23;20364;-91
2022/09/15 12:55:32;;;;;;;0.57;0.57;;;19.70;99.90;;;;;;6173991;23;20614;-88
2022/09/15 12:58:26;;;;;;;;;;;19.90;99.90;;;;;;6161148;23;20737;-90
2022/09/15 13:01:28;;;;;;;1.17;0.77;;;20.20;99.90;;;;;;6140947;23;19917;-92
2022/09/15 13:04:04;;;;;;;0.30;0.30;;;20.50;99.90;;;;;;6078305;23;20018;-85
2022/09/15 13:06:38;;;;;;;0.75;0.63;;;20.30;99.90;;;;;;6089958;23;20029;-85
2022/09/15 13:09:27;;;;;;;0.73;0.70;;;20.40;99.90;;;;;;6087336;23;20022;-90
2022/09/15 13:12:04;;;;;;;1.08;0.70;;;20.10;99.90;;;;;;6089125;23;20018;-87
2022/09/15 13:14:36;;;;;;;2.92;0.88;;;19.80;99.90;;;;;;6091210;23;20033;-84
2022/09/15 13:17:24;;;;;;;0.40;0.40;;;19.80;99.90;;;;;;6093199;23;20019;-86
2022/09/15 13:19:55;;;;;;;0.82;0.82;;;19.80;99.90;;;;;;6068007;23;20027;-85
2022/09/15 13:22:38;;;;;;;5.75;0.32;;;20.00;99.90;;;;;;6065106;23;20194;-83
2022/09/15 13:25:14;;;;;;;1.13;0.70;;;20.20;99.90;;;;;;6063837;23;20027;-83
2022/09/15 13:27:53;;;;;;;0.55;0.50;;;20.00;99.90;;;;;;6137164;23;20040;-86
2022/09/15 13:30:39;;;;;;;1.15;0.57;;;20.20;99.90;;;;;;6132932;23;20631;-90
2022/09/15 13:33:38;;;;;;;1.10;0.55;;;20.20;99.90;;;;;;6128824;23;20021;-84
2022/09/15 13:36:33;;;;;;;0.75;0.50;;;20.20;99.90;;;;;;6150644;23;20032;-88
2022/09/15 13:40:01;;;;;;;0.77;0.73;;;20.40;99.90;;;;;;6139814;23;20014;-84
2022/09/15 13:42:51;;;;;;;2.28;0.85;;;20.50;99.90;;;;;;6133186;23;20029;-85
2022/09/15 13:45:25;;;;;;;0.90;0.65;;;20.50;99.90;;;;;;6153157;23;20025;-85
2022/09/15 13:52:14;;;;;;;1.27;0.68;;;20.20;99.90;;;;;;6141708;23;20033;-91
2022/09/15 13:55:17;;;;;;;0.50;0.40;;;20.30;99.90;;;;;;6080401;23;20413;-84
2022/09/15 13:57:48;;;;;;;0.70;0.70;;;20.30;99.90;;;;;;6151466;23;20029;-89
2022/09/15 14:01:02;;;;;;;1.73;1.05;;;20.30;99.90;;;;;;6124551;23;20030;-86
2022/09/15 14:03:50;;;;;;;0.77;0.47;;;20.30;99.90;;;;;;6150307;23;20345;-89
2022/09/15 14:06:21;;;;;;;2.90;0.40;;;20.10;99.90;;;;;;6150061;23;20261;-89
2022/09/15 14:08:54;;;;;;;1.20;1.17;;;20.00;99.90;;;;;;6154757;23;20025;-85
2022/09/15 14:11:27;;;;;;;0.65;0.60;;;19.90;99.90;;;;;;6160444;23;20017;-87
2022/09/15 14:13:56;;;;;;;6.68;1.70;;;19.90;99.90;;;;;;6150923;23;20026;-86
2022/09/15 14:16:28;;;;;;;0.60;0.60;;;19.90;99.90;;;;;;6157751;23;20037;-90
2022/09/15 14:19:00;;;;;;;0.75;0.60;;;19.80;99.90;;;;;;6152928;23;20056;-87
2022/09/15 14:21:50;;;;;;;0.40;0.40;;;19.70;99.90;;;;;;6151089;23;20461;-90
2022/09/15 14:24:28;;;;;;;0.50;0.50;;;19.90;99.90;;;;;;6148685;23;20025;-83
2022/09/15 14:27:02;;;;;;;;;;;19.90;99.90;;;;;;6159943;23;20014;-84
2022/09/15 14:30:04;;;;;;;1.05;0.70;;;19.80;99.90;;;;;;6152792;23;19927;-94
2022/09/15 14:32:37;;;;;;;1.40;0.90;;;19.60;99.90;;;;;;6152858;23;20025;-86
2022/09/15 14:35:08;;;;;;;1.15;0.50;;;19.60;99.90;;;;;;6163066;23;20049;-86
2022/09/15 14:37:35;;;;;;;0.80;0.80;;;19.60;99.90;;;;;;6099716;23;20022;-86
2022/09/15 14:40:36;;;;;;;9.27;2.60;;;19.60;99.90;;;;;;6125969;23;20021;-86
2022/09/15 14:43:31;;;;;;;1.58;0.80;;;19.70;99.90;;;;;;6161840;23;20028;-91
2022/09/15 14:46:19;;;;;;;2.05;0.63;;;19.70;99.90;;;;;;6128068;23;20025;-85
2022/09/15 14:48:49;;;;;;;0.70;0.70;;;19.50;99.90;;;;;;6152916;23;20028;-84
2022/09/15 14:51:31;;;;;;;0.40;0.40;;;19.40;99.90;;;;;;6161053;23;20594;-89
2022/09/15 14:54:27;;;;;;;0.90;0.90;;;19.10;99.90;;;;;;6152933;23;20048;-91
2022/09/15 14:57:01;;;;;;;4.25;0.85;;;18.50;99.90;;;;;;6157350;23;20024;-90
2022/09/15 14:59:43;;;;;;;1.33;1.05;;;17.80;99.90;;;;;;6102090;23;20028;-88
2022/09/15 15:02:49;;;;;;;1.65;0.95;;;17.40;99.90;;;;;;6125823;23;20052;-90
2022/09/15 15:05:23;;;;;;;1.05;0.70;;;17.10;99.90;;;;;;6155578;23;20025;-90
2022/09/15 15:07:51;;;;;;;0.63;0.63;;;17.00;99.90;;;;;;6160668;23;20013;-89
2022/09/15 15:10:31;;;;;;;1.08;0.98;;;17.00;99.90;;;;;;6163458;23;20014;-90
2022/09/15 15:13:13;;;;;;;0.70;0.70;;;16.90;99.90;;;;;;6158038;23;20021;-92
2022/09/15 15:15:46;;;;;;;1.70;0.85;;;16.90;99.90;;;;;;6164087;23;20027;-92
2022/09/15 15:21:38;;;;;;;;;;;16.90;99.90;;;;;;6155738;23;20032;-90
2022/09/15 15:24:12;;;;;;;1.30;1.30;;;16.90;99.90;;;;;;6189564;23;19928;-83
2022/09/15 15:27:22;;;;;;;3.92;1.77;;;16.80;99.90;;;;;;6191955;23;20326;-86
2022/09/15 15:29:55;;;;;;;1.15;0.60;;;16.50;99.90;;;;;;6175821;23;20337;-86
2022/09/15 15:32:25;;;;;;;2.67;1.48;;;16.20;99.90;;;;;;6187959;23;20344;-87
2022/09/15 15:34:58;;;;;;;8.75;1.67;;;16.00;99.90;;;;;;6191108;23;20012;-86
2022/09/15 15:37:39;;;;;;;1.13;0.63;;;15.90;99.90;;;;;;6171589;23;20021;-90
2022/09/15 15:40:16;;;;;;;0.65;0.65;;;15.90;99.90;;;;;;6163118;23;20014;-87
2022/09/15 15:42:55;;;;;;;4.47;0.80;;;15.90;99.90;;;;;;6191602;23;20236;-89
2022/09/15 15:45:32;;;;;;;0.70;0.70;;;15.70;99.90;;;;;;6184126;23;20025;-89
2022/09/15 15:48:12;;;;;;;0.50;0.50;;;15.80;99.90;;;;;;6189783;23;20032;-90
2022/09/15 15:50:40;;;;;;;1.30;1.30;;;15.70;99.90;;;;;;6192131;23;20013;-90
2022/09/15 15:53:46;;;;;;;1.50;0.60;;;15.60;99.90;;;;;;6184331;23;20033;-87
2022/09/15 15:56:24;;;;;;;0.52;0.52;;;15.60;99.90;;;;;;6188963;23;20021;-91
2022/09/15 15:58:51;;;;;;;0.50;0.50;;;15.50;99.90;;;;;;6191883;23;20021;-88
2022/09/15 16:01:25;;;;;;;0.68;0.68;;;15.60;99.90;;;;;;6184741;23;20048;-91
2022/09/15 16:03:53;;;;;;;0.95;0.93;;;15.50;99.90;;;;;;6191702;23;20021;-90
2022/09/15 16:06:21;;;;;;;0.60;0.60;;;15.40;99.90;;;;;;6195656;23;20444;-89
2022/09/15 16:09:07;;;;;;;0.82;0.82;;;15.40;99.90;;;;;;6188272;23;20024;-89
2022/09/15 16:12:42;;;;;;;0.63;0.63;;;15.40;99.90;;;;;;6192690;23;20027;-89
2022/09/15 16:15:27;;;;;;;0.85;0.73;;;15.40;99.90;;;;;;6192643;23;20017;-87
2022/09/15 16:29:35;;;;;;;1.52;0.80;;;15.40;99.90;;;;;;6153042;23;20021;-90
2022/09/15 16:39:18;;;;;;;;;;;;;;;;;;;;;
2022/09/15 16:42:56;;;;;;;2.03;0.80;;;15.40;99.90;;;;;;5927675;24;20032;-87
2022/09/15 16:49:51;;;;;;;0.90;0.90;;;15.30;99.90;;;;;;5934154;24;20039;-88
2022/09/15 16:57:25;;;;;;;4.43;1.55;;;15.30;99.90;;;;;;5952692;24;19923;-94
2022/09/15 16:59:58;;;;;;;1.40;1.30;;;15.20;99.90;;;;;;5950835;24;20021;-89
2022/09/15 17:03:04;;;;;;;;;;;;;;;;;;;;;
2022/09/15 17:16:27;;;;;;;1.27;1.20;;;14.80;99.90;;;;;;5952394;24;20500;-91
2022/09/15 17:19:21;;;;;;;2.38;1.52;;;14.70;99.90;;;;;;5930047;24;20369;-87
2022/09/15 17:22:33;;;;;;;1.10;1.10;;;14.60;99.90;;;;;;5972884;24;20047;-90
2022/09/15 17:25:57;;;;;;;;;;;;;;;;;;;;;
2022/09/15 17:29:34;;;;;;;2.20;1.38;;;14.50;99.90;;;;;;6069404;23;20027;-88
2022/09/15 17:32:42;;;;;;;1.75;1.58;;;14.50;99.90;;;;;;6052177;23;20019;-90
2022/09/15 17:40:35;;;;;;;2.88;1.65;;;14.20;99.90;;;;;;6088471;23;20038;-88
2022/09/15 17:43:34;;;;;;;3.83;2.33;;;14.10;99.90;;;;;;6066495;23;20364;-89
2022/09/15 17:46:32;;;;;;;4.50;2.38;;;14.00;99.90;;;;;;6054266;23;20033;-87
2022/09/15 17:49:44;;;;;;;2.22;1.92;;;13.80;99.90;;;;;;6094615;23;20030;-88
2022/09/15 17:53:25;;;;;;;2.00;1.80;;;13.70;99.90;;;;;;6103986;23;20828;-87
2022/09/15 17:55:56;;;;;;;11.65;3.15;;;13.80;99.90;;;;;;6128387;23;20022;-85
2022/09/15 17:58:30;;;;;;;3.40;3.10;;;13.80;99.90;;;;;;6120019;23;20022;-86
2022/09/15 18:01:26;;;;;;;4.05;2.08;;;13.80;99.90;;;;;;6117963;23;20357;-89
2022/09/15 18:04:00;;;;;;;20.80;2.38;;;13.70;99.90;;;;;;6127536;23;20017;-88
2022/09/15 18:06:27;;;;;;;3.35;3.05;;;13.60;99.90;;;;;;6119320;23;20029;-85